Time;durP1;ratioP1;P1;durP2;ratioP2;P2;SDS_P1;SDS_P2;PMS_P1;PMS_P2;Temp;Humidity;BMP_temperature;BMP_pressure;BME280_temperature;BME280_humidity;BME280_pressure;Samples;Min_cycle;Max_cycle;Signal;HPM_P1;HPM_P2
2024/02/08 00:01:06;;;;;;;19.98;9.43;;;1.40;99.90;;;;;;5079365;28;20026;-78
2024/02/08 00:03:32;;;;;;;18.83;10.38;;;1.40;99.90;;;;;;5010902;28;20103;-80
2024/02/08 00:05:57;;;;;;;15.30;7.65;;;1.30;99.90;;;;;;5078406;28;20029;-78
2024/02/08 00:08:23;;;;;;;26.75;11.07;;;1.40;99.90;;;;;;5078484;28;20468;-80
2024/02/08 00:10:48;;;;;;;18.27;8.98;;;1.40;99.90;;;;;;5010886;28;20022;-80
2024/02/08 00:13:14;;;;;;;19.58;9.60;;;1.40;99.90;;;;;;5011221;28;20022;-78
2024/02/08 00:15:41;;;;;;;19.80;10.45;;;1.40;99.90;;;;;;5078362;28;20071;-80
2024/02/08 00:18:07;;;;;;;21.00;9.25;;;1.40;99.90;;;;;;5010876;28;20051;-78
2024/02/08 00:20:33;;;;;;;23.77;9.70;;;1.40;99.90;;;;;;5010882;28;20033;-78
2024/02/08 00:22:59;;;;;;;20.35;9.73;;;1.40;99.90;;;;;;5078613;28;20028;-78
2024/02/08 00:25:25;;;;;;;19.13;9.48;;;1.40;99.90;;;;;;5078351;28;20026;-78
2024/02/08 00:27:52;;;;;;;17.08;10.18;;;1.40;99.90;;;;;;5010985;28;20022;-78
2024/02/08 00:30:19;;;;;;;21.40;9.98;;;1.40;99.90;;;;;;5005941;28;20019;-80
2024/02/08 00:32:46;;;;;;;20.85;10.55;;;1.50;99.90;;;;;;5069729;28;20022;-78
2024/02/08 00:35:19;;;;;;;23.23;11.23;;;1.40;99.90;;;;;;5077616;28;20494;-80
2024/02/08 00:37:48;;;;;;;18.77;10.43;;;1.40;99.90;;;;;;5010354;28;20468;-80
2024/02/08 00:40:18;;;;;;;19.88;10.95;;;1.50;99.90;;;;;;5065417;28;20021;-78
2024/02/08 00:42:47;;;;;;;17.55;9.90;;;1.50;99.90;;;;;;5010115;28;20055;-78
2024/02/08 00:45:21;;;;;;;21.17;10.70;;;1.50;99.90;;;;;;5077925;28;20029;-80
2024/02/08 00:47:54;;;;;;;22.13;11.18;;;1.40;99.90;;;;;;5078242;28;20026;-78
2024/02/08 00:50:21;;;;;;;22.45;11.02;;;1.40;99.90;;;;;;5068564;28;20030;-80
2024/02/08 00:52:47;;;;;;;21.80;11.50;;;1.50;99.90;;;;;;5007127;28;20084;-78
2024/02/08 00:55:17;;;;;;;21.08;11.00;;;1.40;99.90;;;;;;5078752;28;20025;-78
2024/02/08 00:57:43;;;;;;;21.92;10.98;;;1.40;99.90;;;;;;5077881;28;20406;-80
2024/02/08 01:00:09;;;;;;;31.98;15.82;;;1.50;99.90;;;;;;5077841;28;20018;-78
2024/02/08 01:02:35;;;;;;;32.75;15.73;;;1.50;99.90;;;;;;5077456;28;20550;-79
2024/02/08 01:05:01;;;;;;;39.17;18.58;;;1.40;99.90;;;;;;5010507;28;20104;-79
2024/02/08 01:07:31;;;;;;;32.40;16.88;;;1.40;99.90;;;;;;5006757;28;20049;-80
2024/02/08 01:09:57;;;;;;;33.10;16.83;;;1.40;99.90;;;;;;5001670;28;20079;-80
2024/02/08 01:12:23;;;;;;;32.13;16.60;;;1.40;99.90;;;;;;5077924;28;20033;-80
2024/02/08 01:14:49;;;;;;;38.75;19.70;;;1.40;99.90;;;;;;5078281;28;20030;-79
2024/02/08 01:17:15;;;;;;;38.83;18.25;;;1.40;99.90;;;;;;5009450;28;20038;-79
2024/02/08 01:19:41;;;;;;;40.15;19.02;;;1.40;99.90;;;;;;5078168;28;20037;-80
2024/02/08 01:22:07;;;;;;;34.05;17.83;;;1.40;99.90;;;;;;5077394;28;20406;-79
2024/02/08 01:24:33;;;;;;;39.13;19.35;;;1.40;99.90;;;;;;5077938;28;20033;-78
2024/02/08 01:27:00;;;;;;;38.10;19.00;;;1.40;99.90;;;;;;5010016;28;20467;-78
2024/02/08 01:29:26;;;;;;;39.78;20.00;;;1.40;99.90;;;;;;5078866;28;20360;-78
2024/02/08 01:31:53;;;;;;;42.17;19.00;;;1.40;99.90;;;;;;5092390;28;20112;-78
2024/02/08 01:34:19;;;;;;;37.15;20.45;;;1.40;99.90;;;;;;5077752;28;20102;-80
2024/02/08 01:36:49;;;;;;;39.95;20.08;;;1.40;99.90;;;;;;5077212;28;20042;-79
2024/02/08 01:39:22;;;;;;;41.58;19.85;;;1.40;99.90;;;;;;5002077;28;20046;-80
2024/02/08 01:41:49;;;;;;;48.38;21.00;;;1.30;99.90;;;;;;5093617;28;20024;-80
2024/02/08 01:44:16;;;;;;;42.30;19.73;;;1.30;99.90;;;;;;5079595;28;20029;-80
2024/02/08 01:46:42;;;;;;;44.00;21.60;;;1.30;99.90;;;;;;5086565;28;20075;-80
2024/02/08 01:49:29;;;;;;;31.92;18.27;;;1.30;99.90;;;;;;5081389;28;20029;-80
2024/02/08 01:52:03;;;;;;;38.55;18.95;;;1.30;99.90;;;;;;4994043;28;20026;-79
2024/02/08 01:54:29;;;;;;;45.03;21.55;;;1.30;99.90;;;;;;5078594;28;20093;-79
2024/02/08 01:56:58;;;;;;;48.55;21.73;;;1.30;99.90;;;;;;5080981;28;20441;-79
2024/02/08 01:59:27;;;;;;;45.17;22.73;;;1.30;99.90;;;;;;5087113;28;20033;-79
2024/02/08 02:01:56;;;;;;;44.35;21.90;;;1.30;99.90;;;;;;5085818;28;20026;-79
2024/02/08 02:04:22;;;;;;;46.90;21.95;;;1.20;99.90;;;;;;5085709;28;20018;-79
2024/02/08 02:06:48;;;;;;;46.65;22.88;;;1.30;99.90;;;;;;5013005;28;20053;-80
2024/02/08 02:09:24;;;;;;;44.95;23.55;;;1.30;99.90;;;;;;5081272;28;20046;-79
2024/02/08 02:12:10;;;;;;;49.13;24.30;;;1.30;99.90;;;;;;5081923;28;20117;-79
2024/02/08 02:14:38;;;;;;;50.80;23.55;;;1.30;99.90;;;;;;5012756;28;20025;-79
2024/02/08 02:17:11;;;;;;;44.05;22.58;;;1.30;99.90;;;;;;5080572;28;20033;-79
2024/02/08 02:19:41;;;;;;;45.45;22.50;;;1.30;99.90;;;;;;5013034;28;20374;-79
2024/02/08 02:22:08;;;;;;;52.95;24.08;;;1.30;99.90;;;;;;5067529;28;20386;-81
2024/02/08 02:24:36;;;;;;;40.78;23.48;;;1.30;99.90;;;;;;5012410;28;20085;-80
2024/02/08 02:27:05;;;;;;;48.83;22.65;;;1.30;99.90;;;;;;5012618;28;20026;-80
2024/02/08 02:29:34;;;;;;;45.10;22.40;;;1.30;99.90;;;;;;5080454;28;20026;-80
2024/02/08 02:32:01;;;;;;;50.55;23.05;;;1.40;99.90;;;;;;5080697;28;20421;-80
2024/02/08 02:34:31;;;;;;;49.80;25.38;;;1.30;99.90;;;;;;5080637;28;20071;-79
2024/02/08 02:37:00;;;;;;;52.03;25.83;;;1.30;99.90;;;;;;5012430;28;20030;-79
2024/02/08 02:39:31;;;;;;;51.13;24.67;;;1.30;99.90;;;;;;5093408;28;20042;-79
2024/02/08 02:42:00;;;;;;;61.38;26.73;;;1.30;99.90;;;;;;5011914;28;20026;-78
2024/02/08 02:44:29;;;;;;;53.40;22.70;;;1.30;99.90;;;;;;5012222;28;20089;-79
2024/02/08 02:47:04;;;;;;;49.25;24.02;;;1.30;99.90;;;;;;5012325;28;20018;-79
2024/02/08 02:49:36;;;;;;;47.47;24.17;;;1.30;99.90;;;;;;5011946;28;20029;-78
2024/02/08 02:52:02;;;;;;;54.67;27.00;;;1.30;99.90;;;;;;5012396;28;20101;-78
2024/02/08 02:54:30;;;;;;;49.17;24.33;;;1.30;99.90;;;;;;5011625;28;20433;-79
2024/02/08 02:56:56;;;;;;;54.83;24.80;;;1.30;99.90;;;;;;5080163;28;20514;-78
2024/02/08 02:59:26;;;;;;;55.75;29.30;;;1.30;99.90;;;;;;5079667;28;20026;-79
2024/02/08 03:01:55;;;;;;;51.58;25.65;;;1.30;99.90;;;;;;5011823;28;20435;-78
2024/02/08 03:04:21;;;;;;;53.58;25.60;;;1.30;99.90;;;;;;5012174;28;20026;-79
2024/02/08 03:06:52;;;;;;;50.20;24.80;;;1.30;99.90;;;;;;5079967;28;20468;-79
2024/02/08 03:09:23;;;;;;;52.72;24.95;;;1.30;99.90;;;;;;5080172;28;20104;-79
2024/02/08 03:11:49;;;;;;;54.20;25.35;;;1.30;99.90;;;;;;5096652;28;20030;-78
2024/02/08 03:14:15;;;;;;;49.05;24.52;;;1.30;99.90;;;;;;5012041;28;20034;-79
2024/02/08 03:16:42;;;;;;;40.30;21.50;;;1.30;99.90;;;;;;5011570;28;20045;-80
2024/02/08 03:19:08;;;;;;;49.80;23.67;;;1.30;99.90;;;;;;5079929;28;20387;-78
2024/02/08 03:21:35;;;;;;;50.15;24.92;;;1.30;99.90;;;;;;5079635;28;20018;-79
2024/02/08 03:24:07;;;;;;;53.42;25.27;;;1.30;99.90;;;;;;5011888;28;20029;-80
2024/02/08 03:26:47;;;;;;;52.93;25.20;;;1.30;99.90;;;;;;5011562;28;20099;-79
2024/02/08 03:29:13;;;;;;;44.42;24.63;;;1.30;99.90;;;;;;5079647;28;20485;-79
2024/02/08 03:31:47;;;;;;;48.58;24.27;;;1.20;99.90;;;;;;5011526;28;20018;-79
2024/02/08 03:34:19;;;;;;;46.80;23.45;;;1.20;99.90;;;;;;5011835;28;20497;-80
2024/02/08 03:36:46;;;;;;;43.25;22.77;;;1.20;99.90;;;;;;5069637;28;20034;-79
2024/02/08 03:39:27;;;;;;;52.63;25.30;;;1.20;99.90;;;;;;5011457;28;20053;-79
2024/02/08 03:41:58;;;;;;;48.63;23.55;;;1.20;99.90;;;;;;5079518;28;20448;-78
2024/02/08 03:44:31;;;;;;;52.08;23.83;;;1.30;99.90;;;;;;5079188;28;20026;-80
2024/02/08 03:47:04;;;;;;;;;;;1.20;99.90;;;;;;5012012;28;20025;-79
2024/02/08 03:49:31;;;;;;;50.25;22.85;;;1.20;99.90;;;;;;5078538;28;19905;-79
2024/02/08 03:51:57;;;;;;;59.70;25.17;;;1.20;99.90;;;;;;5079462;28;20375;-79
2024/02/08 03:54:24;;;;;;;64.00;27.90;;;1.20;99.90;;;;;;5079134;28;20036;-78
2024/02/08 03:56:51;;;;;;;61.50;27.92;;;1.10;99.90;;;;;;4999616;28;20421;-79
2024/02/08 03:59:26;;;;;;;63.30;28.80;;;1.10;99.90;;;;;;5077887;28;20022;-78
2024/02/08 04:02:05;;;;;;;40.13;18.15;;;1.10;99.90;;;;;;5011362;28;20045;-79
2024/02/08 04:04:49;;;;;;;34.13;17.15;;;0.90;99.90;;;;;;5064554;28;20027;-79
2024/02/08 04:53:55;;;;;;;18.25;6.95;;;1.10;99.90;;;;;;5010600;28;20075;-79
2024/02/08 04:56:21;;;;;;;12.68;5.85;;;1.10;99.90;;;;;;5077942;28;20037;-79
2024/02/08 04:58:47;;;;;;;12.55;6.80;;;1.20;99.90;;;;;;5010134;28;20026;-80
2024/02/08 05:01:14;;;;;;;13.95;6.55;;;1.20;99.90;;;;;;5010520;28;20018;-80
2024/02/08 05:03:44;;;;;;;13.65;7.05;;;1.20;99.90;;;;;;5077889;28;20026;-79
2024/02/08 05:06:11;;;;;;;11.68;6.53;;;1.20;99.90;;;;;;5078550;28;20056;-80
2024/02/08 05:08:44;;;;;;;15.65;6.97;;;1.20;99.90;;;;;;5093976;28;20079;-79
2024/02/08 05:11:12;;;;;;;15.82;7.05;;;1.20;99.90;;;;;;5078309;28;20050;-80
2024/02/08 05:13:42;;;;;;;15.48;7.03;;;1.20;99.90;;;;;;5077804;28;20021;-79
2024/02/08 05:16:14;;;;;;;12.75;6.78;;;1.20;99.90;;;;;;5078199;28;20434;-79
2024/02/08 05:18:47;;;;;;;14.43;6.70;;;1.20;99.90;;;;;;5093661;28;20439;-80
2024/02/08 05:21:16;;;;;;;12.85;6.45;;;1.20;99.90;;;;;;5078143;28;20018;-79
2024/02/08 05:23:43;;;;;;;20.75;9.00;;;1.20;99.90;;;;;;5077485;28;20071;-79
2024/02/08 05:26:18;;;;;;;19.48;11.43;;;1.20;99.90;;;;;;5077927;28;20022;-79
2024/02/08 05:28:47;;;;;;;22.88;11.32;;;1.20;99.90;;;;;;5010069;28;20058;-79
2024/02/08 05:31:14;;;;;;;13.98;8.98;;;1.20;99.90;;;;;;5077074;28;20490;-79
2024/02/08 05:33:42;;;;;;;15.65;6.80;;;1.20;99.90;;;;;;5077752;28;20436;-79
2024/02/08 05:36:10;;;;;;;9.57;6.38;;;1.20;99.90;;;;;;5077359;28;20075;-79
2024/02/08 05:38:41;;;;;;;10.35;5.50;;;1.10;99.90;;;;;;5077794;28;20385;-79
2024/02/08 05:41:11;;;;;;;9.05;5.10;;;1.20;99.90;;;;;;5077221;28;20033;-79
2024/02/08 05:43:47;;;;;;;9.30;4.72;;;1.10;99.90;;;;;;5009616;28;20556;-79
2024/02/08 05:46:21;;;;;;;11.02;6.60;;;1.10;99.90;;;;;;5076922;28;20507;-78
2024/02/08 05:48:51;;;;;;;20.02;10.23;;;1.10;99.90;;;;;;5009658;28;20022;-79
2024/02/08 05:51:20;;;;;;;19.40;9.15;;;1.10;99.90;;;;;;5077393;28;20492;-80
2024/02/08 05:53:49;;;;;;;16.75;8.55;;;1.10;99.90;;;;;;5009727;28;20459;-80
2024/02/08 05:56:21;;;;;;;19.45;9.25;;;1.10;99.90;;;;;;5093994;28;20064;-80
2024/02/08 05:58:53;;;;;;;14.37;9.23;;;1.10;99.90;;;;;;5094372;28;20372;-79
2024/02/08 06:01:23;;;;;;;22.15;10.30;;;1.20;99.90;;;;;;5076993;28;20315;-78
2024/02/08 06:03:56;;;;;;;23.80;10.80;;;1.20;99.90;;;;;;5076945;28;20740;-80
2024/02/08 06:09:37;;;;;;;26.25;10.65;;;1.20;99.90;;;;;;5007577;28;20502;-78
2024/02/08 06:12:08;;;;;;;27.30;10.73;;;1.20;99.90;;;;;;5008027;28;20356;-78
2024/02/08 06:14:38;;;;;;;25.55;11.23;;;1.20;99.90;;;;;;5050256;28;20014;-78
2024/02/08 06:17:08;;;;;;;23.77;10.32;;;1.20;99.90;;;;;;5008136;28;20025;-79
2024/02/08 06:19:39;;;;;;;17.52;7.55;;;1.20;99.90;;;;;;5002455;28;20072;-80
2024/02/08 06:22:23;;;;;;;22.90;8.13;;;1.20;99.90;;;;;;5073585;28;20067;-79
2024/02/08 06:24:49;;;;;;;15.68;8.13;;;1.20;99.90;;;;;;5075186;28;20272;-79
2024/02/08 06:27:16;;;;;;;13.95;8.18;;;1.20;99.90;;;;;;5085584;28;20034;-78
2024/02/08 06:29:42;;;;;;;15.90;7.10;;;1.20;99.90;;;;;;5070701;28;20151;-78
2024/02/08 06:32:33;;;;;;;12.68;7.53;;;1.20;99.90;;;;;;5005498;28;20026;-78
2024/02/08 06:35:25;;;;;;;14.48;7.13;;;1.20;99.90;;;;;;5078922;28;20041;-78
2024/02/08 06:38:02;;;;;;;15.63;7.90;;;1.20;99.90;;;;;;5005341;28;20080;-78
2024/02/08 06:40:47;;;;;;;19.52;9.80;;;1.20;99.90;;;;;;5074815;28;20553;-79
2024/02/08 06:48:36;;;;;;;11.98;7.68;;;1.20;99.90;;;;;;5006545;28;20517;-79
2024/02/08 07:37:42;;;;;;;17.70;10.07;;;1.20;99.90;;;;;;4999039;28;20089;-79
2024/02/08 07:40:25;;;;;;;24.67;13.48;;;1.20;99.90;;;;;;5070995;28;20452;-79
2024/02/08 07:45:51;;;;;;;27.40;10.93;;;1.30;99.90;;;;;;5007562;28;19973;-79
2024/02/08 07:51:03;;;;;;;21.05;9.65;;;1.50;99.90;;;;;;4997244;28;20053;-78
2024/02/08 07:58:48;;;;;;;17.98;9.80;;;1.40;99.90;;;;;;5005251;28;20034;-80
2024/02/08 08:01:17;;;;;;;13.68;8.85;;;1.40;99.90;;;;;;4994720;28;20022;-80
2024/02/08 08:03:49;;;;;;;22.25;8.57;;;1.40;99.90;;;;;;5008629;28;20018;-80
2024/02/08 08:06:15;;;;;;;19.35;8.90;;;1.40;99.90;;;;;;4998108;28;20055;-80
2024/02/08 08:08:57;;;;;;;13.95;6.97;;;1.40;99.90;;;;;;5004217;28;20033;-80
2024/02/08 08:11:30;;;;;;;14.68;7.03;;;1.50;99.90;;;;;;5073125;28;20053;-80
2024/02/08 08:18:57;;;;;;;11.02;4.63;;;1.40;99.90;;;;;;4996768;28;20062;-80
2024/02/08 08:21:27;;;;;;;6.47;3.45;;;1.40;99.90;;;;;;5001958;28;20030;-80
2024/02/08 08:24:02;;;;;;;8.93;3.50;;;1.40;99.90;;;;;;4999207;28;20044;-79
2024/02/08 08:26:43;;;;;;;8.35;3.00;;;1.30;99.90;;;;;;5077127;28;20036;-79
2024/02/08 08:29:18;;;;;;;6.57;2.65;;;1.30;99.90;;;;;;5009068;28;20026;-79
2024/02/08 08:31:53;;;;;;;9.68;2.60;;;1.20;99.90;;;;;;5078251;28;20458;-78
2024/02/08 08:36:58;;;;;;;7.75;3.30;;;1.20;99.90;;;;;;5010458;28;20398;-82
2024/02/08 08:42:16;;;;;;;10.88;3.58;;;1.20;99.90;;;;;;5008120;28;20044;-79
2024/02/08 08:44:48;;;;;;;6.43;3.50;;;1.20;99.90;;;;;;4997367;28;20049;-79
2024/02/08 08:47:17;;;;;;;8.02;4.60;;;1.20;99.90;;;;;;5074155;28;20054;-78
2024/02/08 08:49:43;;;;;;;12.30;4.60;;;1.20;99.90;;;;;;5077184;28;20384;-79
2024/02/08 08:52:10;;;;;;;7.68;4.72;;;1.30;99.90;;;;;;5008618;28;20037;-78
2024/02/08 08:54:36;;;;;;;11.27;4.47;;;1.40;99.90;;;;;;4999202;28;20018;-79
2024/02/08 08:57:12;;;;;;;6.30;3.47;;;1.30;99.90;;;;;;4997503;28;20042;-79
2024/02/08 08:59:43;;;;;;;8.52;3.80;;;1.30;99.90;;;;;;5000006;28;20541;-78
2024/02/08 09:02:09;;;;;;;9.18;3.90;;;1.30;99.90;;;;;;5072937;28;20064;-81
2024/02/08 09:04:36;;;;;;;10.05;4.35;;;1.30;99.00;;;;;;5090222;28;20058;-79
2024/02/08 09:07:10;;;;;;;6.43;3.47;;;1.40;99.90;;;;;;5073423;28;20097;-81
2024/02/08 09:09:55;;;;;;;7.53;2.97;;;1.40;99.90;;;;;;5079759;28;20019;-79
2024/02/08 09:12:28;;;;;;;8.00;3.28;;;1.40;99.90;;;;;;5008369;28;20051;-81
2024/02/08 09:14:59;;;;;;;7.25;3.63;;;1.40;99.90;;;;;;5068003;28;20147;-81
2024/02/08 09:17:26;;;;;;;8.48;4.20;;;1.40;99.90;;;;;;5078252;28;20065;-81
2024/02/08 09:19:52;;;;;;;11.57;4.45;;;1.50;99.90;;;;;;5074753;28;20439;-81
2024/02/08 09:22:18;;;;;;;10.88;5.78;;;1.60;99.90;;;;;;5069262;28;20060;-81
2024/02/08 09:24:44;;;;;;;11.85;5.53;;;1.60;99.90;;;;;;5073631;28;20071;-79
2024/02/08 09:27:16;;;;;;;11.48;5.25;;;1.60;99.90;;;;;;4994226;28;20114;-79
2024/02/08 09:29:43;;;;;;;12.23;5.53;;;1.70;99.90;;;;;;4996510;28;20023;-80
2024/02/08 09:32:43;;;;;;;12.63;5.88;;;1.80;99.90;;;;;;4993483;28;20097;-79
2024/02/08 09:34:58;;;;;;;11.15;6.15;;;1.80;99.90;;;;;;5005922;28;20022;-80
2024/02/08 09:37:24;;;;;;;13.68;6.55;;;1.70;99.90;;;;;;5072003;28;20415;-80
2024/02/08 09:42:26;;;;;;;9.63;5.80;;;1.70;99.90;;;;;;5000257;28;20436;-81
2024/02/08 09:47:51;;;;;;;9.23;5.28;;;1.70;99.90;;;;;;5006337;28;20506;-82
2024/02/08 09:50:50;;;;;;;10.38;5.25;;;1.70;99.90;;;;;;5068745;28;20026;-80
2024/02/08 09:53:27;;;;;;;13.10;6.00;;;1.80;99.90;;;;;;5057751;28;20125;-79
2024/02/08 09:55:57;;;;;;;10.23;5.00;;;1.80;99.90;;;;;;5004522;28;20041;-80
2024/02/08 10:01:22;;;;;;;12.63;4.85;;;1.90;99.90;;;;;;5010977;28;20037;-81
2024/02/08 10:04:14;;;;;;;16.92;5.40;;;1.90;99.90;;;;;;5004521;28;20022;-81
2024/02/08 10:09:46;;;;;;;12.40;5.43;;;1.90;99.90;;;;;;5012350;28;20027;-80
2024/02/08 10:12:20;;;;;;;11.45;5.03;;;1.90;99.90;;;;;;5011198;28;20081;-80
2024/02/08 10:14:54;;;;;;;8.80;4.82;;;1.90;99.90;;;;;;5077500;28;20026;-80
2024/02/08 10:17:28;;;;;;;11.40;4.88;;;2.00;99.90;;;;;;5073846;28;20038;-80
2024/02/08 10:22:55;;;;;;;16.77;5.75;;;2.10;99.90;;;;;;4997681;28;20073;-80
2024/02/08 10:28:22;;;;;;;10.32;4.75;;;2.20;99.90;;;;;;4994680;28;20083;-82
2024/02/08 10:31:07;;;;;;;12.65;5.32;;;2.30;99.90;;;;;;5066494;28;20017;-82
2024/02/08 10:33:37;;;;;;;14.35;4.82;;;2.30;99.90;;;;;;5072529;28;20115;-82
2024/02/08 10:36:10;;;;;;;11.10;5.22;;;2.30;99.90;;;;;;4996847;28;20025;-82
2024/02/08 10:41:57;;;;;;;10.18;5.68;;;2.50;99.90;;;;;;5018948;28;20027;-83
2024/02/08 10:44:27;;;;;;;19.00;6.97;;;2.50;99.90;;;;;;4996926;28;20033;-83
2024/02/08 10:47:05;;;;;;;11.18;6.43;;;2.50;99.90;;;;;;5009433;28;20530;-82
2024/02/08 10:49:35;;;;;;;11.75;5.75;;;2.50;99.90;;;;;;5073014;28;20041;-83
2024/02/08 10:52:01;;;;;;;16.40;6.63;;;2.60;99.90;;;;;;5072423;28;20034;-83
2024/02/08 10:54:39;;;;;;;13.27;6.60;;;2.70;99.90;;;;;;5002752;28;20106;-83
2024/02/08 10:57:06;;;;;;;13.75;6.85;;;2.80;99.90;;;;;;5086696;28;20037;-82
2024/02/08 10:59:50;;;;;;;12.23;5.80;;;2.90;99.90;;;;;;5075010;28;20046;-83
2024/02/08 11:02:35;;;;;;;11.10;6.70;;;2.90;99.90;;;;;;5075702;28;20018;-82
2024/02/08 11:05:21;;;;;;;11.55;6.38;;;2.90;99.90;;;;;;4998506;28;20019;-83
2024/02/08 11:07:48;;;;;;;10.55;6.40;;;2.90;99.90;;;;;;5072500;28;20015;-83
2024/02/08 11:10:20;;;;;;;20.02;6.88;;;2.90;99.90;;;;;;5009433;28;20432;-83
2024/02/08 11:12:51;;;;;;;20.40;7.07;;;2.90;99.90;;;;;;5079069;28;20034;-82
2024/02/08 11:15:30;;;;;;;18.17;9.02;;;2.90;99.90;;;;;;5005370;28;20030;-83
2024/02/08 11:17:58;;;;;;;15.15;7.68;;;2.90;99.90;;;;;;4991650;28;20039;-83
2024/02/08 11:20:43;;;;;;;14.55;7.03;;;2.90;99.90;;;;;;5005971;28;20036;-83
2024/02/08 11:23:10;;;;;;;14.23;8.43;;;3.00;99.90;;;;;;5003632;28;20496;-83
2024/02/08 11:25:38;;;;;;;12.18;7.97;;;3.10;99.90;;;;;;5077998;28;20098;-83
2024/02/08 11:28:24;;;;;;;14.85;8.07;;;3.10;99.90;;;;;;5002550;28;20014;-82
2024/02/08 11:30:52;;;;;;;15.02;8.90;;;3.20;99.90;;;;;;5008203;28;20099;-83
2024/02/08 11:33:40;;;;;;;13.38;7.75;;;3.20;99.90;;;;;;5001680;28;20033;-83
2024/02/08 11:36:12;;;;;;;18.55;8.07;;;3.10;99.90;;;;;;5008346;28;20025;-81
2024/02/08 11:38:46;;;;;;;14.43;8.20;;;3.10;99.90;;;;;;5075696;28;20175;-82
2024/02/08 11:41:25;;;;;;;20.35;7.70;;;3.20;99.90;;;;;;5068571;28;20105;-82
2024/02/08 11:44:11;;;;;;;15.45;8.00;;;3.20;99.90;;;;;;5006592;28;20045;-82
2024/02/08 11:46:37;;;;;;;17.50;9.48;;;3.20;99.90;;;;;;5068337;28;20030;-82
2024/02/08 11:49:14;;;;;;;17.50;9.05;;;3.20;99.90;;;;;;5066289;28;20547;-81
2024/02/08 11:51:45;;;;;;;20.55;10.85;;;3.10;99.90;;;;;;5074154;28;20022;-82
2024/02/08 11:54:22;;;;;;;16.77;9.55;;;3.10;99.90;;;;;;5063924;28;20062;-81
2024/02/08 11:56:49;;;;;;;13.05;7.65;;;3.00;99.90;;;;;;5064133;28;20038;-82
2024/02/08 11:59:15;;;;;;;15.38;8.57;;;3.00;99.90;;;;;;5002753;28;20058;-80
2024/02/08 12:01:44;;;;;;;15.60;8.77;;;3.00;99.90;;;;;;5001792;28;20029;-78
2024/02/08 12:04:15;;;;;;;19.67;10.23;;;3.00;99.90;;;;;;5002959;28;20018;-80
2024/02/08 12:06:45;;;;;;;19.42;10.52;;;3.00;99.90;;;;;;4991055;28;20442;-79
2024/02/08 12:09:22;;;;;;;16.33;8.82;;;3.00;99.90;;;;;;5065579;28;20022;-79
2024/02/08 12:11:49;;;;;;;18.13;9.23;;;3.00;99.90;;;;;;5055148;28;20104;-80
2024/02/08 12:14:17;;;;;;;15.27;9.15;;;3.10;99.90;;;;;;5072175;28;20026;-80
2024/02/08 12:16:47;;;;;;;14.32;9.13;;;3.10;99.90;;;;;;5075910;28;20025;-80
2024/02/08 12:19:16;;;;;;;15.07;8.75;;;3.20;99.90;;;;;;5081666;28;20026;-80
2024/02/08 12:21:42;;;;;;;15.50;8.82;;;3.20;99.90;;;;;;4994175;28;20037;-80
2024/02/08 12:24:15;;;;;;;16.00;8.57;;;3.20;99.90;;;;;;4990837;28;20026;-80
2024/02/08 12:26:42;;;;;;;;;;;3.20;99.90;;;;;;5007418;28;20026;-80
2024/02/08 12:29:16;;;;;;;14.48;7.53;;;3.20;99.90;;;;;;5070685;28;19962;-81
2024/02/08 12:31:45;;;;;;;14.43;9.63;;;3.20;99.90;;;;;;5001760;28;20022;-80
2024/02/08 12:34:13;;;;;;;19.70;9.50;;;3.20;99.90;;;;;;5004580;28;20042;-80
2024/02/08 12:36:45;;;;;;;18.38;9.18;;;3.20;99.90;;;;;;5004050;28;20038;-81
2024/02/08 12:39:20;;;;;;;21.63;11.68;;;3.20;99.90;;;;;;5062186;28;20044;-81
2024/02/08 12:41:46;;;;;;;18.27;10.02;;;3.30;99.90;;;;;;4997606;28;20095;-81
2024/02/08 12:44:20;;;;;;;17.17;9.25;;;3.20;99.90;;;;;;4997238;28;20038;-81
2024/02/08 12:46:49;;;;;;;20.33;11.38;;;3.00;99.90;;;;;;5072356;28;20034;-81
2024/02/08 12:49:16;;;;;;;18.55;10.63;;;3.00;99.90;;;;;;4996313;28;20552;-81
2024/02/08 12:51:42;;;;;;;16.65;10.63;;;3.00;99.90;;;;;;5076239;28;20110;-81
2024/02/08 12:54:07;;;;;;;18.48;9.85;;;3.00;99.90;;;;;;5008320;28;20052;-80
2024/02/08 12:56:36;;;;;;;20.80;11.38;;;3.00;99.90;;;;;;4998065;28;20403;-80
2024/02/08 12:59:04;;;;;;;23.52;12.10;;;3.00;99.90;;;;;;4998515;28;20426;-81
2024/02/08 13:01:44;;;;;;;26.60;12.15;;;2.90;99.90;;;;;;4998331;28;20119;-82
2024/02/08 13:04:16;;;;;;;21.23;10.98;;;2.90;99.90;;;;;;5007909;28;20037;-80
2024/02/08 13:06:42;;;;;;;26.25;11.23;;;2.80;99.90;;;;;;5009721;28;20029;-80
2024/02/08 13:09:49;;;;;;;25.08;11.65;;;2.70;99.90;;;;;;5060262;28;20105;-83
2024/02/08 13:12:17;;;;;;;26.02;12.85;;;2.70;99.90;;;;;;5012981;28;20039;-83
2024/02/08 13:14:49;;;;;;;20.40;11.63;;;2.70;99.90;;;;;;5085147;28;20034;-83
2024/02/08 13:17:20;;;;;;;24.33;12.05;;;2.60;99.90;;;;;;5074540;28;20132;-83
2024/02/08 13:19:47;;;;;;;25.40;13.10;;;2.60;99.90;;;;;;5009297;28;20092;-82
2024/02/08 13:22:14;;;;;;;26.52;13.02;;;2.60;99.90;;;;;;4993124;28;20022;-82
2024/02/08 13:24:40;;;;;;;20.90;11.00;;;2.60;99.90;;;;;;5002463;28;20046;-83
2024/02/08 13:27:06;;;;;;;25.10;12.15;;;2.50;99.90;;;;;;5000037;28;20022;-83
2024/02/08 13:29:34;;;;;;;25.05;11.77;;;2.50;99.90;;;;;;5074961;28;20022;-83
2024/02/08 13:32:01;;;;;;;19.27;10.98;;;2.60;99.90;;;;;;4996181;28;20392;-83
2024/02/08 13:34:27;;;;;;;17.77;10.45;;;2.50;99.90;;;;;;5006142;28;20061;-82
2024/02/08 13:36:58;;;;;;;22.60;11.30;;;2.40;99.90;;;;;;4993561;28;20483;-82
2024/02/08 13:39:25;;;;;;;21.50;10.82;;;2.40;99.90;;;;;;5007807;28;20049;-82
2024/02/08 13:41:51;;;;;;;19.05;11.15;;;2.40;99.90;;;;;;5009764;28;20030;-83
2024/02/08 13:44:20;;;;;;;23.75;12.60;;;2.40;99.90;;;;;;4996370;28;20030;-83
2024/02/08 13:46:48;;;;;;;23.23;12.45;;;2.30;99.90;;;;;;5077353;28;20048;-83
2024/02/08 13:49:15;;;;;;;30.55;14.95;;;2.20;99.90;;;;;;5001839;28;20034;-82
2024/02/08 13:51:44;;;;;;;30.30;14.73;;;2.20;99.90;;;;;;5072135;28;20063;-82
2024/02/08 13:54:13;;;;;;;23.90;15.30;;;2.20;99.90;;;;;;5082041;28;20061;-82
2024/02/08 13:56:40;;;;;;;30.02;16.52;;;2.10;99.90;;;;;;5015340;28;20033;-82
2024/02/08 13:59:06;;;;;;;24.90;13.57;;;2.10;99.90;;;;;;5070193;28;20030;-82
2024/02/08 14:01:32;;;;;;;26.20;13.23;;;2.00;99.90;;;;;;4998791;28;20024;-82
2024/02/08 14:03:58;;;;;;;34.45;16.50;;;2.00;99.90;;;;;;5009969;28;20113;-82
2024/02/08 14:06:25;;;;;;;42.35;23.13;;;2.00;99.90;;;;;;4996823;28;20022;-82
2024/02/08 14:08:54;;;;;;;50.85;25.85;;;1.90;99.90;;;;;;4999025;28;20120;-82
2024/02/08 14:11:25;;;;;;;57.78;30.88;;;1.90;99.90;;;;;;5006089;28;20036;-82
2024/02/08 14:13:52;;;;;;;57.47;29.85;;;1.90;99.90;;;;;;5082359;28;20444;-81
2024/02/08 14:16:21;;;;;;;45.55;20.75;;;1.90;99.90;;;;;;5003802;28;20065;-82
2024/02/08 14:18:51;;;;;;;33.30;15.05;;;1.80;99.90;;;;;;5071055;28;20137;-83
2024/02/08 14:21:24;;;;;;;30.33;15.40;;;1.80;99.90;;;;;;5008311;28;20494;-85
2024/02/08 14:23:53;;;;;;;38.92;16.48;;;1.80;99.90;;;;;;5078397;28;20125;-82
2024/02/08 14:28:47;;;;;;;33.35;17.25;;;1.70;99.90;;;;;;5012711;28;20056;-83
2024/02/08 14:31:14;;;;;;;40.80;19.63;;;1.70;99.90;;;;;;5081880;28;20021;-83
2024/02/08 14:33:46;;;;;;;37.92;18.58;;;1.70;99.90;;;;;;5007039;28;20082;-83
2024/02/08 14:36:13;;;;;;;41.17;20.57;;;1.70;99.90;;;;;;5012630;28;20117;-81
2024/02/08 14:38:40;;;;;;;39.58;20.23;;;1.70;99.90;;;;;;5007485;28;20293;-81
2024/02/08 14:41:07;;;;;;;33.75;17.50;;;1.60;99.90;;;;;;5063297;28;20018;-81
2024/02/08 14:43:33;;;;;;;32.38;15.93;;;1.60;99.90;;;;;;5074744;28;20026;-81
2024/02/08 14:46:01;;;;;;;27.08;14.65;;;1.60;99.90;;;;;;5007273;28;20038;-82
2024/02/08 14:48:27;;;;;;;27.83;15.52;;;1.50;99.90;;;;;;5073007;28;20018;-82
2024/02/08 14:51:29;;;;;;;34.38;17.13;;;1.50;99.90;;;;;;5007803;28;20399;-81
2024/02/08 14:53:58;;;;;;;35.55;17.52;;;1.40;99.90;;;;;;5003622;28;20158;-82
2024/02/08 14:56:24;;;;;;;33.73;15.77;;;1.30;99.90;;;;;;4999898;28;20034;-82
2024/02/08 15:01:38;;;;;;;37.75;17.10;;;1.30;99.90;;;;;;5001623;28;20175;-81
2024/02/08 15:04:16;;;;;;;34.20;18.88;;;1.30;99.90;;;;;;5079551;28;20029;-80
2024/02/08 15:14:44;;;;;;;27.38;15.25;;;1.30;99.90;;;;;;5001404;28;20026;-81
2024/02/08 15:17:18;;;;;;;32.30;15.88;;;1.20;99.90;;;;;;5006035;28;20042;-81
2024/02/08 15:19:48;;;;;;;32.28;16.83;;;1.20;99.90;;;;;;5010892;28;20042;-82
2024/02/08 15:25:04;;;;;;;32.25;16.27;;;1.20;99.90;;;;;;5010703;28;20109;-81
2024/02/08 15:30:40;;;;;;;31.17;16.98;;;1.20;99.90;;;;;;5012240;28;20026;-81
2024/02/08 15:33:25;;;;;;;47.60;23.48;;;1.20;99.90;;;;;;5008540;28;20025;-80
2024/02/08 15:35:59;;;;;;;155.57;77.82;;;1.20;99.90;;;;;;5032904;28;20111;-79
2024/02/08 15:41:07;;;;;;;109.60;61.13;;;1.20;99.90;;;;;;4999480;28;20030;-80
2024/02/08 15:43:36;;;;;;;218.40;73.10;;;1.10;99.90;;;;;;5010879;28;20536;-80
2024/02/08 15:46:04;;;;;;;116.32;68.70;;;1.10;99.90;;;;;;5067162;28;20056;-80